createdAt,value
2022-11-16T00:01:10.082Z,100643.00
2022-11-16T00:03:51.747Z,100641.00
2022-11-16T00:06:28.748Z,100640.00
2022-11-16T00:09:34.393Z,100639.00
2022-11-16T00:12:18.837Z,100639.00
2022-11-16T00:15:01.258Z,100643.00
2022-11-16T00:17:37.244Z,100631.00
2022-11-16T00:20:13.513Z,100628.00
2022-11-16T00:22:53.953Z,100637.00
2022-11-16T00:25:34.734Z,100625.00
2022-11-16T00:28:12.197Z,100630.00
2022-11-16T00:30:50.548Z,100593.00
2022-11-16T00:33:30.593Z,100624.00
2022-11-16T00:36:05.064Z,100621.00
2022-11-16T00:38:48.533Z,100617.00
2022-11-16T00:41:25.811Z,100612.00
2022-11-16T00:44:18.997Z,100618.00
2022-11-16T00:46:53.600Z,100603.00
2022-11-16T00:49:29.442Z,100596.00
2022-11-16T00:52:03.866Z,100604.00
2022-11-16T00:54:38.302Z,100598.00
2022-11-16T00:57:28.468Z,100602.00
2022-11-16T01:00:01.895Z,100602.00
2022-11-16T01:02:40.237Z,100608.00
2022-11-16T01:05:24.206Z,100600.00
2022-11-16T01:08:02.939Z,100597.00
2022-11-16T01:13:28.772Z,100600.00
2022-11-16T01:16:01.823Z,100596.00
2022-11-16T01:18:35.206Z,100595.00
2022-11-16T01:21:10.054Z,100592.00
2022-11-16T01:23:43.091Z,100590.00
2022-11-16T01:26:16.052Z,100582.00
2022-11-16T01:28:49.394Z,100582.00
2022-11-16T01:31:22.215Z,100589.00
2022-11-16T01:33:57.871Z,100587.00
2022-11-16T01:36:30.943Z,100591.00
2022-11-16T01:39:03.957Z,100577.00
2022-11-16T01:41:36.883Z,100577.00
2022-11-16T01:44:12.040Z,100575.00
2022-11-16T01:46:45.216Z,100577.00
2022-11-16T01:49:26.855Z,100576.00
2022-11-16T01:52:04.629Z,100572.00
2022-11-16T01:54:54.092Z,100572.00
2022-11-16T01:57:29.219Z,100568.00
2022-11-16T02:00:03.575Z,100568.00
2022-11-16T02:02:36.644Z,100566.00
2022-11-16T02:05:11.623Z,100560.00
2022-11-16T02:08:25.064Z,100554.00
2022-11-16T02:11:12.210Z,100553.00
2022-11-16T02:14:15.648Z,100547.00
2022-11-16T02:16:51.489Z,100545.00
2022-11-16T02:19:32.658Z,100536.00
2022-11-16T02:22:28.854Z,100533.00
2022-11-16T02:25:12.677Z,100525.00
2022-11-16T02:28:05.732Z,100527.00
2022-11-16T02:30:40.310Z,100521.00
2022-11-16T02:33:14.908Z,100527.00
2022-11-16T02:35:55.700Z,100519.00
2022-11-16T02:38:36.725Z,100520.00
2022-11-16T02:41:14.920Z,100514.00
2022-11-16T02:43:52.544Z,100508.00
2022-11-16T02:46:27.626Z,100496.00
2022-11-16T02:49:04.992Z,100499.00
2022-11-16T02:51:40.132Z,100490.00
2022-11-16T02:54:20.830Z,100489.00
2022-11-16T02:57:01.077Z,100491.00
2022-11-16T02:59:39.043Z,100479.00
2022-11-16T03:02:30.874Z,100476.00
2022-11-16T03:05:14.873Z,100476.00
2022-11-16T03:07:56.273Z,100468.00
2022-11-16T03:10:47.336Z,100464.00
2022-11-16T03:13:21.937Z,100459.00
2022-11-16T03:15:56.395Z,100463.00
2022-11-16T03:18:31.694Z,100462.00
2022-11-16T03:21:07.193Z,100459.00
2022-11-16T03:23:40.728Z,100453.00
2022-11-16T03:26:16.038Z,100454.00
2022-11-16T03:28:50.890Z,100457.00
2022-11-16T03:31:25.795Z,100448.00
2022-11-16T03:34:00.944Z,100458.00
2022-11-16T03:36:38.761Z,100450.00
2022-11-16T03:39:13.677Z,100444.00
2022-11-16T03:41:47.915Z,100444.00
2022-11-16T03:44:22.378Z,100442.00
2022-11-16T03:46:55.387Z,100445.00
2022-11-16T03:49:28.266Z,100443.00
2022-11-16T03:52:02.403Z,100443.00
2022-11-16T03:54:35.289Z,100431.00
2022-11-16T03:57:08.689Z,100434.00
2022-11-16T03:59:41.827Z,100439.00
2022-11-16T04:02:19.275Z,100430.00
2022-11-16T04:05:09.850Z,100432.00
2022-11-16T04:08:00.370Z,100432.00
2022-11-16T04:10:53.243Z,100426.00
2022-11-16T04:13:45.100Z,100424.00
2022-11-16T04:16:35.470Z,100426.00
2022-11-16T04:19:25.716Z,100413.00
2022-11-16T04:22:23.306Z,100425.00
2022-11-16T04:24:58.724Z,100413.00
2022-11-16T04:27:50.802Z,100416.00
2022-11-16T04:30:23.820Z,100412.00
2022-11-16T04:33:14.053Z,100414.00
2022-11-16T04:36:04.153Z,100416.00
2022-11-16T04:38:37.369Z,100419.00
2022-11-16T04:41:11.395Z,100410.00
2022-11-16T04:43:44.339Z,100413.00
2022-11-16T04:46:34.724Z,100405.00
2022-11-16T04:49:07.742Z,100414.00
2022-11-16T04:51:40.787Z,100409.00
2022-11-16T04:54:13.786Z,100414.00
2022-11-16T04:56:46.675Z,100412.00
2022-11-16T04:59:19.903Z,100418.00
2022-11-16T05:02:11.445Z,100418.00
2022-11-16T05:04:45.781Z,100421.00
2022-11-16T05:07:19.596Z,100424.00
2022-11-16T05:09:53.457Z,100422.00
2022-11-16T05:12:28.117Z,100421.00
2022-11-16T05:15:01.238Z,100406.00
2022-11-16T05:17:34.207Z,100416.00
2022-11-16T05:20:24.642Z,100407.00
2022-11-16T05:23:02.310Z,100399.00
2022-11-16T05:25:37.053Z,100399.00
2022-11-16T05:28:09.449Z,100400.00
2022-11-16T05:30:45.855Z,100405.00
2022-11-16T05:33:19.719Z,100411.00
2022-11-16T05:35:53.783Z,100416.00
2022-11-16T05:38:26.792Z,100415.00
2022-11-16T05:40:59.770Z,100415.00
2022-11-16T05:43:33.891Z,100421.00
2022-11-16T05:46:06.769Z,100421.00
2022-11-16T05:48:39.784Z,100425.00
2022-11-16T05:51:12.918Z,100429.00
2022-11-16T05:53:46.354Z,100432.00
2022-11-16T05:56:19.621Z,100441.00
2022-11-16T05:58:52.697Z,100454.00
2022-11-16T06:01:25.728Z,100453.00
2022-11-16T06:03:58.911Z,100450.00
2022-11-16T06:06:32.207Z,100454.00
2022-11-16T06:09:05.300Z,100454.00
2022-11-16T06:11:39.735Z,100454.00
2022-11-16T06:14:15.374Z,100460.00
2022-11-16T06:16:48.339Z,100460.00
2022-11-16T06:19:21.517Z,100464.00
2022-11-16T06:21:54.677Z,100462.00
2022-11-16T06:24:28.479Z,100471.00
2022-11-16T06:27:01.601Z,100479.00
2022-11-16T06:29:34.482Z,100473.00
2022-11-16T06:32:07.396Z,100479.00
2022-11-16T06:34:40.954Z,100475.00
2022-11-16T06:37:13.836Z,100469.00
2022-11-16T06:39:46.894Z,100481.00
2022-11-16T06:42:19.931Z,100478.00
2022-11-16T06:44:52.817Z,100472.00
2022-11-16T06:47:25.647Z,100482.00
2022-11-16T06:49:58.629Z,100488.00
2022-11-16T06:52:31.732Z,100493.00
2022-11-16T06:55:04.735Z,100497.00
2022-11-16T06:57:37.951Z,100494.00
2022-11-16T07:00:12.126Z,100495.00
2022-11-16T07:02:45.391Z,100496.00
2022-11-16T07:05:18.387Z,100510.00
2022-11-16T07:07:51.206Z,100501.00
2022-11-16T07:10:24.301Z,100503.00
2022-11-16T07:12:57.548Z,100503.00
2022-11-16T07:15:33.324Z,100510.00
2022-11-16T07:18:12.643Z,100509.00
2022-11-16T07:20:45.784Z,100513.00
2022-11-16T07:23:19.234Z,100507.00
2022-11-16T07:25:52.669Z,100509.00
2022-11-16T07:28:25.656Z,100518.00
2022-11-16T07:30:58.770Z,100514.00
2022-11-16T07:33:31.719Z,100508.00
2022-11-16T07:36:08.782Z,100509.00
2022-11-16T07:38:41.774Z,100521.00
2022-11-16T07:41:22.336Z,100519.00
2022-11-16T07:43:55.374Z,100521.00
2022-11-16T07:46:45.895Z,100520.00
2022-11-16T07:49:04.007Z,100523.00
2022-11-16T07:51:37.190Z,100532.00
2022-11-16T07:54:14.509Z,100529.00
2022-11-16T07:56:47.758Z,100528.00
2022-11-16T07:59:20.730Z,100531.00
2022-11-16T08:01:54.029Z,100530.00
2022-11-16T08:04:26.964Z,100512.00
2022-11-16T08:07:00.203Z,100532.00
2022-11-16T08:09:33.346Z,100536.00
2022-11-16T08:12:10.788Z,100529.00
2022-11-16T08:14:43.587Z,100541.00
2022-11-16T08:17:16.679Z,100533.00
2022-11-16T08:19:49.703Z,100526.00
2022-11-16T08:22:22.581Z,100534.00
2022-11-16T08:24:55.753Z,100537.00
2022-11-16T08:27:28.686Z,100536.00
2022-11-16T08:30:01.808Z,100534.00
2022-11-16T08:32:34.822Z,100533.00
2022-11-16T08:35:08.482Z,100541.00
2022-11-16T08:37:41.451Z,100544.00
2022-11-16T08:40:16.518Z,100548.00
2022-11-16T08:42:49.365Z,100543.00
2022-11-16T08:45:22.405Z,100549.00
2022-11-16T08:48:03.359Z,100553.00
2022-11-16T08:50:31.395Z,100550.00
2022-11-16T08:53:03.986Z,100556.00
2022-11-16T08:55:37.756Z,100563.00
2022-11-16T08:58:10.698Z,100563.00
2022-11-16T09:00:43.767Z,100564.00
2022-11-16T09:03:16.748Z,100564.00
2022-11-16T09:05:49.767Z,100564.00
2022-11-16T09:08:22.888Z,100564.00
2022-11-16T09:10:56.224Z,100569.00
2022-11-16T09:13:29.459Z,100577.00
2022-11-16T09:16:02.985Z,100579.00
2022-11-16T09:18:36.523Z,100587.00
2022-11-16T09:21:09.541Z,100583.00
2022-11-16T09:23:42.375Z,100588.00
2022-11-16T09:26:15.796Z,100592.00
2022-11-16T09:28:49.406Z,100588.00
2022-11-16T09:31:23.732Z,100589.00
2022-11-16T09:33:57.154Z,100596.00
2022-11-16T09:36:31.316Z,100590.00
2022-11-16T09:42:19.794Z,100582.00
2022-11-16T09:45:00.361Z,100577.00
2022-11-16T09:47:38.524Z,100581.00
2022-11-16T09:50:13.457Z,100582.00
2022-11-16T09:52:51.248Z,100588.00
2022-11-16T09:55:25.890Z,100573.00
2022-11-16T09:58:00.778Z,100574.00
2022-11-16T10:00:34.655Z,100574.00
2022-11-16T10:03:18.126Z,100573.00
2022-11-16T10:06:02.250Z,100563.00
2022-11-16T10:08:49.314Z,100566.00
2022-11-16T10:11:33.560Z,100567.00
2022-11-16T10:14:17.054Z,100562.00
2022-11-16T10:17:08.032Z,100564.00
2022-11-16T10:19:55.289Z,100560.00
2022-11-16T10:22:48.493Z,100553.00
2022-11-16T10:25:29.423Z,100560.00
2022-11-16T10:28:19.375Z,100553.00
2022-11-16T10:30:55.308Z,100554.00
2022-11-16T10:33:31.387Z,100557.00
2022-11-16T10:36:05.144Z,100556.00
2022-11-16T10:38:38.334Z,100556.00
2022-11-16T10:41:28.926Z,100549.00
2022-11-16T10:44:03.213Z,100544.00
2022-11-16T10:46:41.152Z,100543.00
2022-11-16T10:49:32.677Z,100547.00
2022-11-16T10:52:06.047Z,100545.00
2022-11-16T10:54:42.986Z,100552.00
2022-11-16T10:57:14.561Z,100547.00
2022-11-16T10:59:49.431Z,100539.00
2022-11-16T11:02:39.531Z,100532.00
2022-11-16T11:05:23.735Z,100528.00
2022-11-16T11:08:07.935Z,100521.00
2022-11-16T11:10:43.393Z,100523.00
2022-11-16T11:13:18.776Z,100510.00
2022-11-16T11:15:53.073Z,100516.00
2022-11-16T11:18:32.428Z,100507.00
2022-11-16T11:21:22.890Z,100499.00
2022-11-16T11:24:16.139Z,100494.00
2022-11-16T11:26:37.633Z,100491.00
2022-11-16T11:29:31.212Z,100486.00
2022-11-16T11:32:06.457Z,100489.00
2022-11-16T11:34:47.075Z,100488.00
2022-11-16T11:37:31.119Z,100482.00
2022-11-16T11:40:15.347Z,100484.00
2022-11-16T11:42:50.185Z,100492.00
2022-11-16T11:45:25.098Z,100481.00
2022-11-16T11:48:03.408Z,100484.00
2022-11-16T11:50:53.576Z,100478.00
2022-11-16T11:53:35.219Z,100478.00
2022-11-16T11:56:09.213Z,100472.00
2022-11-16T11:58:44.288Z,100467.00
2022-11-16T12:01:25.730Z,100470.00
2022-11-16T12:04:18.955Z,100472.00
2022-11-16T12:07:10.582Z,100476.00
2022-11-16T12:09:48.301Z,100471.00
2022-11-16T12:12:26.023Z,100475.00
2022-11-16T12:15:17.054Z,100468.00
2022-11-16T12:18:01.523Z,100472.00
2022-11-16T12:20:51.830Z,100468.00
2022-11-16T12:23:39.293Z,100472.00
2022-11-16T12:26:32.114Z,100457.00
2022-11-16T12:29:30.221Z,100445.00
2022-11-16T12:32:14.679Z,100443.00
2022-11-16T12:34:49.810Z,100439.00
2022-11-16T12:37:37.181Z,100444.00
2022-11-16T12:40:27.350Z,100429.00
2022-11-16T12:43:04.948Z,100431.00
2022-11-16T12:45:43.304Z,100420.00
2022-11-16T12:48:46.680Z,100426.00
2022-11-16T12:51:42.670Z,100441.00
2022-11-16T12:54:33.974Z,100427.00
2022-11-16T12:57:08.890Z,100421.00
2022-11-16T12:59:46.729Z,100420.00
2022-11-16T13:02:22.098Z,100416.00
2022-11-16T13:05:08.656Z,100417.00
2022-11-16T13:07:52.310Z,100410.00
2022-11-16T13:10:30.714Z,100395.00
2022-11-16T13:15:47.971Z,100393.00
2022-11-16T13:18:23.595Z,100396.00
2022-11-16T13:21:01.443Z,100401.00
2022-11-16T13:23:45.028Z,100405.00
2022-11-16T13:26:35.233Z,100406.00
2022-11-16T13:29:28.940Z,100414.00
2022-11-16T13:32:07.278Z,100400.00
2022-11-16T13:34:42.031Z,100396.00
2022-11-16T13:37:39.836Z,100383.00
2022-11-16T13:40:16.638Z,100395.00
2022-11-16T13:43:08.144Z,100392.00
2022-11-16T13:45:55.161Z,100392.00
2022-11-16T13:48:33.266Z,100386.00
2022-11-16T13:51:08.506Z,100384.00
2022-11-16T13:56:19.128Z,100373.00
2022-11-16T13:59:00.317Z,100377.00
2022-11-16T14:01:35.337Z,100383.00
2022-11-16T14:04:45.566Z,100366.00
2022-11-16T14:07:42.752Z,100375.00
2022-11-16T14:10:17.953Z,100362.00
2022-11-16T14:12:59.119Z,100361.00
2022-11-16T14:15:34.353Z,100362.00
2022-11-16T14:18:15.551Z,100349.00
2022-11-16T14:20:59.063Z,100347.00
2022-11-16T14:23:37.217Z,100352.00
2022-11-16T14:26:27.223Z,100356.00
2022-11-16T14:29:05.238Z,100357.00
2022-11-16T14:31:59.053Z,100352.00
2022-11-16T14:34:48.836Z,100353.00
2022-11-16T14:37:30.687Z,100361.00
2022-11-16T14:40:20.433Z,100353.00
2022-11-16T14:45:34.168Z,100352.00
2022-11-16T14:48:09.356Z,100356.00
2022-11-16T14:50:42.379Z,100350.00
2022-11-16T14:53:17.478Z,100347.00
2022-11-16T14:55:50.400Z,100348.00
2022-11-16T14:58:25.582Z,100348.00
2022-11-16T15:01:06.586Z,100347.00
2022-11-16T15:03:52.931Z,100350.00
2022-11-16T15:06:26.299Z,100346.00
2022-11-16T15:09:01.380Z,100342.00
2022-11-16T15:11:53.270Z,100340.00
2022-11-16T15:14:27.951Z,100353.00
2022-11-16T15:17:02.253Z,100348.00
2022-11-16T15:19:35.447Z,100344.00
2022-11-16T15:22:10.614Z,100346.00
2022-11-16T15:24:43.573Z,100340.00
2022-11-16T15:27:18.408Z,100337.00
2022-11-16T15:29:52.256Z,100332.00
2022-11-16T15:32:25.663Z,100332.00
2022-11-16T15:35:03.968Z,100330.00
2022-11-16T15:37:33.867Z,100339.00
2022-11-16T15:40:07.313Z,100352.00
2022-11-16T15:42:41.324Z,100354.00
2022-11-16T15:45:28.169Z,100346.00
2022-11-16T15:48:02.843Z,100348.00
2022-11-16T15:50:36.125Z,100340.00
2022-11-16T15:53:09.267Z,100331.00
2022-11-16T15:55:44.092Z,100332.00
2022-11-16T15:58:29.046Z,100332.00
2022-11-16T16:01:03.074Z,100338.00
2022-11-16T16:03:37.532Z,100321.00
2022-11-16T16:06:12.197Z,100320.00
2022-11-16T16:08:46.418Z,100325.00
2022-11-16T16:11:26.929Z,100313.00
2022-11-16T16:14:06.447Z,100308.00
2022-11-16T16:16:39.793Z,100307.00
2022-11-16T16:19:32.993Z,100304.00
2022-11-16T16:22:07.288Z,100292.00
2022-11-16T16:24:48.758Z,100292.00
2022-11-16T16:27:24.143Z,100291.00
2022-11-16T16:29:58.405Z,100288.00
2022-11-16T16:32:33.097Z,100298.00
2022-11-16T16:35:08.377Z,100293.00
2022-11-16T16:37:41.402Z,100294.00
2022-11-16T16:40:14.915Z,100297.00
2022-11-16T16:42:52.151Z,100297.00
2022-11-16T16:45:43.333Z,100304.00
2022-11-16T16:48:16.934Z,100311.00
2022-11-16T16:50:51.545Z,100320.00
2022-11-16T16:53:25.400Z,100314.00
2022-11-16T16:55:59.278Z,100307.00
2022-11-16T16:58:32.488Z,100297.00
2022-11-16T17:01:07.561Z,100290.00
2022-11-16T17:03:41.759Z,100295.00
2022-11-16T17:06:15.998Z,100288.00
2022-11-16T17:08:49.300Z,100293.00
2022-11-16T17:11:24.118Z,100303.00
2022-11-16T17:13:57.573Z,100308.00
2022-11-16T17:16:32.042Z,100309.00
2022-11-16T17:19:06.202Z,100312.00
2022-11-16T17:21:40.194Z,100323.00
2022-11-16T17:24:14.636Z,100321.00
2022-11-16T17:26:49.266Z,100331.00
2022-11-16T17:29:23.247Z,100341.00
2022-11-16T17:31:58.576Z,100346.00
2022-11-16T17:34:33.325Z,100345.00
2022-11-16T17:37:07.788Z,100352.00
2022-11-16T17:39:42.022Z,100353.00
2022-11-16T17:42:16.003Z,100356.00
2022-11-16T17:44:49.795Z,100347.00
2022-11-16T17:47:23.963Z,100346.00
2022-11-16T17:49:57.509Z,100340.00
2022-11-16T17:52:31.729Z,100339.00
2022-11-16T17:55:05.129Z,100325.00
2022-11-16T17:57:39.069Z,100319.00
2022-11-16T18:00:14.429Z,100323.00
2022-11-16T18:02:47.478Z,100335.00
2022-11-16T18:05:20.757Z,100337.00
2022-11-16T18:07:53.838Z,100330.00
2022-11-16T18:10:26.741Z,100319.00
2022-11-16T18:12:59.733Z,100314.00
2022-11-16T18:15:37.840Z,100318.00
2022-11-16T18:18:07.938Z,100321.00
2022-11-16T18:20:41.544Z,100340.00
2022-11-16T18:23:14.602Z,100337.00
2022-11-16T18:25:47.582Z,100354.00
2022-11-16T18:28:21.924Z,100366.00
2022-11-16T18:30:56.542Z,100372.00
2022-11-16T18:33:30.771Z,100368.00
2022-11-16T18:36:04.762Z,100371.00
2022-11-16T18:38:38.379Z,100355.00
2022-11-16T18:41:19.485Z,100350.00
2022-11-16T18:44:00.166Z,100359.00
2022-11-16T18:46:34.617Z,100345.00
2022-11-16T18:49:07.735Z,100348.00
2022-11-16T18:51:41.117Z,100352.00
2022-11-16T18:54:14.516Z,100352.00
2022-11-16T18:56:47.601Z,100345.00
2022-11-16T18:59:20.863Z,100342.00
2022-11-16T19:01:53.833Z,100342.00
2022-11-16T19:04:27.897Z,100347.00
2022-11-16T19:07:01.011Z,100349.00
2022-11-16T19:09:34.103Z,100352.00
2022-11-16T19:12:07.240Z,100346.00
2022-11-16T19:14:41.289Z,100356.00
2022-11-16T19:17:14.346Z,100349.00
2022-11-16T19:19:47.201Z,100355.00
2022-11-16T19:22:21.153Z,100352.00
2022-11-16T19:24:54.190Z,100350.00
2022-11-16T19:27:27.309Z,100341.00
2022-11-16T19:30:03.315Z,100350.00
2022-11-16T19:32:36.150Z,100360.00
2022-11-16T19:35:09.523Z,100366.00
2022-11-16T19:37:43.343Z,100367.00
2022-11-16T19:40:19.805Z,100359.00
2022-11-16T19:42:50.984Z,100357.00
2022-11-16T19:45:23.914Z,100348.00
2022-11-16T19:47:57.960Z,100353.00
2022-11-16T19:50:31.011Z,100342.00
2022-11-16T19:53:04.034Z,100347.00
2022-11-16T19:55:36.995Z,100354.00
2022-11-16T19:58:09.868Z,100352.00
2022-11-16T20:00:43.269Z,100362.00
2022-11-16T20:03:16.155Z,100360.00
2022-11-16T20:05:49.114Z,100357.00
2022-11-16T20:08:22.676Z,100360.00
2022-11-16T20:10:55.776Z,100352.00
2022-11-16T20:13:28.754Z,100350.00
2022-11-16T20:16:03.062Z,100352.00
2022-11-16T20:18:38.856Z,100349.00
2022-11-16T20:21:13.592Z,100352.00
2022-11-16T20:23:47.393Z,100344.00
2022-11-16T20:26:20.963Z,100348.00
2022-11-16T20:28:55.128Z,100348.00
2022-11-16T20:31:29.760Z,100347.00
2022-11-16T20:34:04.222Z,100343.00
2022-11-16T20:36:37.898Z,100350.00
2022-11-16T20:39:10.971Z,100346.00
2022-11-16T20:41:44.713Z,100342.00
2022-11-16T20:44:23.356Z,100340.00
2022-11-16T20:46:56.321Z,100334.00
2022-11-16T20:49:29.254Z,100324.00
2022-11-16T20:52:02.205Z,100324.00
2022-11-16T20:54:35.411Z,100317.00
2022-11-16T20:57:08.487Z,100320.00
2022-11-16T20:59:41.540Z,100334.00
2022-11-16T21:02:15.120Z,100321.00
2022-11-16T21:04:56.137Z,100320.00
2022-11-16T21:07:26.735Z,100324.00
2022-11-16T21:10:16.995Z,100337.00
2022-11-16T21:13:07.695Z,100315.00
2022-11-16T21:15:40.850Z,100321.00
2022-11-16T21:18:13.915Z,100332.00
2022-11-16T21:20:47.202Z,100332.00
2022-11-16T21:23:20.209Z,100333.00
2022-11-16T21:25:53.190Z,100337.00
2022-11-16T21:28:28.544Z,100345.00
2022-11-16T21:31:05.959Z,100348.00
2022-11-16T21:33:39.042Z,100346.00
2022-11-16T21:36:16.341Z,100352.00
2022-11-16T21:38:50.639Z,100342.00
2022-11-16T21:41:24.917Z,100333.00
2022-11-16T21:43:58.011Z,100341.00
2022-11-16T21:46:31.978Z,100336.00
2022-11-16T21:49:05.203Z,100335.00
2022-11-16T21:51:38.632Z,100331.00
2022-11-16T21:54:11.748Z,100331.00
2022-11-16T21:56:44.642Z,100321.00
2022-11-16T21:59:17.685Z,100310.00
2022-11-16T22:02:02.972Z,100301.00
2022-11-16T22:04:53.552Z,100304.00
2022-11-16T22:07:30.996Z,100300.00
2022-11-16T22:10:07.719Z,100299.00
2022-11-16T22:12:43.467Z,100304.00
2022-11-16T22:15:16.826Z,100305.00
2022-11-16T22:17:49.860Z,100296.00
2022-11-16T22:20:23.324Z,100295.00
2022-11-16T22:22:56.252Z,100291.00
2022-11-16T22:25:29.392Z,100283.00
2022-11-16T22:30:37.249Z,100279.00
2022-11-16T22:33:14.655Z,100286.00
2022-11-16T22:35:48.768Z,100284.00
2022-11-16T22:38:21.850Z,100297.00
2022-11-16T22:40:59.255Z,100287.00
2022-11-16T22:43:33.910Z,100283.00
2022-11-16T22:46:09.025Z,100288.00
2022-11-16T22:48:43.297Z,100301.00
2022-11-16T22:51:24.854Z,100291.00
2022-11-16T22:53:59.076Z,100297.00
2022-11-16T22:56:32.903Z,100281.00
2022-11-16T22:59:06.828Z,100279.00
2022-11-16T23:01:40.134Z,100273.00
2022-11-16T23:04:13.281Z,100268.00
2022-11-16T23:06:46.215Z,100272.00
2022-11-16T23:09:19.778Z,100276.00
2022-11-16T23:12:15.385Z,100276.00
2022-11-16T23:18:03.815Z,100273.00
2022-11-16T23:21:01.666Z,100267.00
2022-11-16T23:23:58.802Z,100279.00
2022-11-16T23:26:52.611Z,100279.00
2022-11-16T23:29:30.686Z,100276.00
2022-11-16T23:32:10.102Z,100276.00
2022-11-16T23:34:48.818Z,100280.00
2022-11-16T23:37:27.376Z,100296.00
2022-11-16T23:40:04.168Z,100289.00
2022-11-16T23:45:47.466Z,100275.00
2022-11-16T23:48:30.849Z,100271.00
2022-11-16T23:51:04.366Z,100281.00
2022-11-16T23:53:44.676Z,100271.00
2022-11-16T23:56:20.862Z,100290.00
2022-11-16T23:58:54.096Z,100283.00
